Time;durP1;ratioP1;P1;durP2;ratioP2;P2;SDS_P1;SDS_P2;PMS_P1;PMS_P2;Temp;Humidity;BMP_temperature;BMP_pressure;BME280_temperature;BME280_humidity;BME280_pressure;Samples;Min_cycle;Max_cycle;Signal;HPM_P1;HPM_P2
2021/06/01 00:00:09;;;;;;;3.60;1.70;;;;;;;13.15;66.05;101539.47;5014595;28;20030;-86
2021/06/01 00:02:35;;;;;;;3.95;1.77;;;;;;;13.27;67.05;101548.97;5024530;28;20505;-85
2021/06/01 00:05:00;;;;;;;5.00;1.80;;;;;;;13.31;66.23;101544.06;5023737;28;20041;-86
2021/06/01 00:07:26;;;;;;;3.05;1.70;;;;;;;13.38;67.06;101538.88;4983241;28;20046;-85
2021/06/01 00:09:58;;;;;;;4.85;1.88;;;;;;;13.36;66.62;101540.91;4982153;28;20104;-85
2021/06/01 00:12:25;;;;;;;3.95;2.03;;;;;;;13.34;68.06;101548.31;4987737;28;20041;-85
2021/06/01 00:14:50;;;;;;;4.38;2.00;;;;;;;13.27;66.76;101540.88;4985698;28;20044;-85
2021/06/01 00:17:16;;;;;;;3.72;2.08;;;;;;;13.30;66.50;101537.84;4988615;28;20228;-86
2021/06/01 00:19:42;;;;;;;3.97;2.00;;;;;;;13.22;66.45;101537.78;5004643;28;20398;-86
2021/06/01 00:22:07;;;;;;;4.45;2.00;;;;;;;13.19;67.49;101540.81;4984379;28;20145;-84
2021/06/01 00:24:34;;;;;;;4.70;2.00;;;;;;;13.21;65.94;101538.81;5012755;28;20068;-84
2021/06/01 00:27:00;;;;;;;3.63;2.00;;;;;;;13.19;66.69;101532.72;5002187;28;20046;-85
2021/06/01 00:29:27;;;;;;;3.08;2.00;;;;;;;13.13;66.81;101535.22;4984997;28;20776;-84
2021/06/01 00:31:53;;;;;;;2.47;1.75;;;;;;;13.07;68.70;101536.72;4996992;28;20042;-85
2021/06/01 00:34:19;;;;;;;3.58;1.88;;;;;;;12.99;67.61;101531.31;5000866;28;20505;-84
2021/06/01 00:36:45;;;;;;;3.72;2.00;;;;;;;12.87;68.86;101530.75;4988650;28;20069;-84
2021/06/01 00:39:11;;;;;;;2.75;1.80;;;;;;;12.76;67.64;101531.88;4971458;28;20368;-84
2021/06/01 00:41:36;;;;;;;4.72;1.85;;;;;;;12.75;67.41;101532.88;4997231;28;20060;-85
2021/06/01 00:44:02;;;;;;;3.78;2.00;;;;;;;12.75;68.40;101527.50;4992574;28;20041;-84
2021/06/01 00:46:27;;;;;;;3.05;1.95;;;;;;;12.71;67.88;101536.03;4992186;28;20034;-85
2021/06/01 00:48:53;;;;;;;3.83;2.40;;;;;;;12.71;66.86;101533.34;4989173;28;20052;-85
2021/06/01 00:51:19;;;;;;;3.53;1.90;;;;;;;12.69;68.45;101529.97;4980810;28;20061;-86
2021/06/01 00:53:45;;;;;;;3.22;1.92;;;;;;;12.61;66.85;101531.63;4997053;28;20205;-85
2021/06/01 00:56:10;;;;;;;4.03;2.13;;;;;;;12.70;69.02;101529.81;4988560;28;20407;-84
2021/06/01 00:58:36;;;;;;;4.90;2.03;;;;;;;12.63;66.94;101531.47;5000032;28;20045;-86
2021/06/01 01:03:36;;;;;;;5.90;2.13;;;;;;;12.61;68.48;101533.47;4998275;28;20505;-86
2021/06/01 01:06:33;;;;;;;4.60;2.13;;;;;;;12.58;67.91;101525.72;5006904;28;20046;-84
2021/06/01 01:09:09;;;;;;;4.25;2.22;;;;;;;12.53;68.31;101525.34;4988406;28;20525;-84
2021/06/01 01:11:41;;;;;;;6.43;2.53;;;;;;;12.52;69.13;101523.66;5002906;28;20038;-85
2021/06/01 01:14:22;;;;;;;6.63;2.50;;;;;;;12.49;68.46;101524.00;5000495;28;20050;-84
2021/06/01 01:17:16;;;;;;;3.78;2.30;;;;;;;12.49;69.45;101521.28;4999098;28;20512;-84
2021/06/01 01:19:47;;;;;;;3.67;2.30;;;;;;;12.37;69.91;101524.25;4985642;28;20064;-83
2021/06/01 01:22:13;;;;;;;5.13;2.30;;;;;;;12.36;71.41;101525.22;4991334;28;20503;-84
2021/06/01 01:24:46;;;;;;;5.53;2.42;;;;;;;12.30;70.99;101533.09;4985328;28;20056;-85
2021/06/01 01:27:31;;;;;;;3.47;2.15;;;;;;;12.21;70.33;101529.50;4979474;28;20525;-85
2021/06/01 01:30:00;;;;;;;5.00;2.10;;;;;;;12.12;69.46;101528.59;4990793;28;20399;-86
2021/06/01 01:32:48;;;;;;;;;;;;;;;12.16;69.57;101532.66;4996080;28;20537;-85
2021/06/01 01:35:15;;;;;;;3.47;2.28;;;;;;;12.18;70.64;101535.22;5008018;28;19964;-85
2021/06/01 01:37:43;;;;;;;5.10;2.83;;;;;;;12.14;69.78;101534.69;4973116;28;20038;-84
2021/06/01 01:40:09;;;;;;;3.80;2.40;;;;;;;12.22;70.23;101533.88;4985218;28;20376;-84
2021/06/01 01:42:42;;;;;;;3.50;2.10;;;;;;;12.15;70.75;101533.66;4954643;28;20041;-85
2021/06/01 01:45:21;;;;;;;4.45;2.03;;;;;;;12.08;71.08;101529.06;4985088;28;20068;-84
2021/06/01 01:50:20;;;;;;;5.18;2.88;;;;;;;11.90;71.42;101543.38;4989349;28;20061;-86
2021/06/01 01:52:47;;;;;;;5.13;2.42;;;;;;;11.87;72.40;101532.94;4990051;28;20072;-85
2021/06/01 01:55:15;;;;;;;4.72;2.63;;;;;;;11.87;73.24;101532.09;4963027;28;20073;-85
2021/06/01 01:57:46;;;;;;;4.82;2.70;;;;;;;11.81;72.34;101528.13;4967068;28;20430;-86
2021/06/01 02:00:15;;;;;;;4.82;2.60;;;;;;;11.77;73.43;101526.78;4994700;28;20042;-84
2021/06/01 02:02:45;;;;;;;4.82;2.83;;;;;;;11.71;73.86;101522.00;4981976;28;20434;-84
2021/06/01 02:05:11;;;;;;;4.55;2.50;;;;;;;11.65;73.99;101528.84;4970393;28;20050;-85
2021/06/01 02:07:37;;;;;;;4.85;2.85;;;;;;;11.56;73.21;101528.91;4995879;28;20048;-86
2021/06/01 02:10:07;;;;;;;4.60;2.53;;;;;;;11.61;73.36;101530.13;5009363;28;20525;-84
2021/06/01 02:12:33;;;;;;;4.85;2.65;;;;;;;11.64;73.94;101526.31;4989198;28;20214;-84
2021/06/01 02:15:00;;;;;;;4.40;2.88;;;;;;;11.62;73.54;101530.97;4998925;28;20434;-84
2021/06/01 02:17:27;;;;;;;4.63;3.03;;;;;;;11.56;73.56;101526.22;4995643;28;20133;-85
2021/06/01 02:19:53;;;;;;;3.95;2.70;;;;;;;11.51;73.54;101530.22;4992352;28;20050;-86
2021/06/01 02:26:01;;;;;;;4.53;2.63;;;;;;;11.37;72.87;101524.53;4971887;28;20037;-85
2021/06/01 02:28:34;;;;;;;4.78;2.85;;;;;;;11.41;73.10;101526.75;4987596;28;20038;-85
2021/06/01 02:31:06;;;;;;;4.45;2.80;;;;;;;11.43;72.86;101524.75;4983996;28;20049;-85
2021/06/01 02:33:36;;;;;;;5.93;3.00;;;;;;;11.40;73.60;101519.69;4996169;28;20133;-85
2021/06/01 02:36:01;;;;;;;;;;;;;;;11.37;73.43;101513.78;5000047;28;20045;-85
2021/06/01 02:38:31;;;;;;;4.70;3.00;;;;;;;11.27;73.89;101516.50;5006890;28;20051;-84
2021/06/01 02:40:58;;;;;;;4.25;3.03;;;;;;;11.26;74.28;101515.66;4988408;28;20041;-85
2021/06/01 02:43:24;;;;;;;4.63;2.67;;;;;;;11.30;74.22;101519.72;4982814;28;20053;-85
2021/06/01 02:45:50;;;;;;;4.30;3.20;;;;;;;11.26;74.25;101512.97;4999692;28;20042;-85
2021/06/01 02:48:20;;;;;;;5.53;3.13;;;;;;;11.26;74.10;101506.75;4983970;28;20034;-84
2021/06/01 02:50:49;;;;;;;6.40;3.20;;;;;;;11.16;74.03;101505.97;4997136;28;20050;-84
2021/06/01 02:53:15;;;;;;;4.55;2.97;;;;;;;11.17;74.39;101508.53;4999254;28;20057;-84
2021/06/01 02:55:42;;;;;;;5.60;3.50;;;;;;;11.14;75.32;101510.66;4970824;28;20505;-85
2021/06/01 02:58:10;;;;;;;5.65;3.55;;;;;;;11.11;74.45;101511.81;4992516;28;20045;-85
2021/06/01 03:00:38;;;;;;;4.88;3.20;;;;;;;11.06;74.51;101514.09;4980415;28;20053;-84
2021/06/01 03:03:07;;;;;;;5.47;2.95;;;;;;;11.07;74.68;101505.88;4969720;28;20050;-85
2021/06/01 03:05:33;;;;;;;6.43;3.53;;;;;;;11.05;74.90;101515.94;4990857;28;20038;-86
2021/06/01 03:08:11;;;;;;;7.43;3.42;;;;;;;10.94;74.78;101510.75;5004840;28;20052;-87
2021/06/01 03:10:37;;;;;;;5.18;3.60;;;;;;;10.95;75.04;101515.13;4999311;28;20052;-85
2021/06/01 03:13:03;;;;;;;6.90;3.67;;;;;;;10.95;75.13;101511.59;5021408;28;20041;-85
2021/06/01 03:15:29;;;;;;;6.15;3.72;;;;;;;10.87;75.07;101511.50;5007345;28;20131;-85
2021/06/01 03:17:54;;;;;;;6.03;3.53;;;;;;;10.86;75.89;101513.34;4991206;28;20038;-84
2021/06/01 03:20:20;;;;;;;5.25;2.95;;;;;;;10.78;75.58;101513.25;5008737;28;20437;-85
2021/06/01 03:22:47;;;;;;;4.72;3.30;;;;;;;10.79;75.78;101504.22;5004203;28;20120;-84
2021/06/01 03:25:13;;;;;;;4.57;3.25;;;;;;;10.82;76.42;101509.28;4969732;28;20147;-85
2021/06/01 03:27:39;;;;;;;5.85;3.53;;;;;;;10.80;76.69;101504.03;4985875;28;20046;-83
2021/06/01 03:30:08;;;;;;;5.63;3.30;;;;;;;10.77;76.30;101500.81;4965329;28;20109;-86
2021/06/01 03:32:33;;;;;;;6.93;3.60;;;;;;;10.68;76.81;101504.41;4968117;28;20039;-84
2021/06/01 03:35:00;;;;;;;5.05;3.13;;;;;;;10.57;76.69;101503.56;4997747;28;20050;-85
2021/06/01 03:37:25;;;;;;;5.13;3.33;;;;;;;10.63;76.87;101501.31;5006723;28;20117;-85
2021/06/01 03:39:51;;;;;;;5.57;3.55;;;;;;;10.66;77.26;101503.69;4990502;28;20038;-85
2021/06/01 03:42:16;;;;;;;5.18;3.70;;;;;;;10.56;76.99;101498.38;4998914;28;20344;-84
2021/06/01 03:44:43;;;;;;;5.07;3.70;;;;;;;10.52;77.43;101496.94;4996642;28;20046;-85
2021/06/01 03:47:09;;;;;;;4.95;3.58;;;;;;;10.51;77.66;101501.47;4988045;28;20472;-84
2021/06/01 03:49:35;;;;;;;5.47;3.50;;;;;;;10.53;76.97;101501.31;4991669;28;20129;-85
2021/06/01 03:52:06;;;;;;;5.00;3.60;;;;;;;10.54;76.87;101501.19;5025241;28;20508;-84
2021/06/01 03:54:31;;;;;;;8.57;3.78;;;;;;;10.54;76.37;101500.34;5009339;28;20124;-83
2021/06/01 03:57:04;;;;;;;6.10;3.30;;;;;;;10.54;76.32;101501.19;4990523;28;20407;-85
2021/06/01 03:59:30;;;;;;;6.10;3.80;;;;;;;10.61;76.56;101507.63;4971465;28;20494;-86
2021/06/01 04:01:55;;;;;;;12.13;4.45;;;;;;;10.63;77.50;101498.63;4994859;28;20053;-83
2021/06/01 04:04:21;;;;;;;5.97;3.67;;;;;;;10.66;76.64;101504.53;4986149;28;20055;-85
2021/06/01 04:06:47;;;;;;;7.15;3.80;;;;;;;10.72;75.81;101503.09;4984314;28;20046;-84
2021/06/01 04:09:13;;;;;;;6.85;3.60;;;;;;;10.76;76.19;101497.28;5008767;28;20043;-84
2021/06/01 04:11:38;;;;;;;5.68;3.47;;;;;;;10.76;74.94;101502.66;5011671;28;20625;-84
2021/06/01 04:14:04;;;;;;;4.88;3.50;;;;;;;10.81;75.02;101503.03;4987770;28;20037;-85
2021/06/01 04:16:31;;;;;;;6.65;4.05;;;;;;;10.84;74.58;101507.28;4987806;28;20046;-85
2021/06/01 04:18:56;;;;;;;5.78;3.42;;;;;;;10.86;75.00;101505.28;4997311;28;20092;-85
2021/06/01 04:21:22;;;;;;;5.90;3.72;;;;;;;10.93;74.46;101513.59;4988517;28;20033;-85
2021/06/01 04:23:49;;;;;;;6.75;3.60;;;;;;;10.96;74.65;101511.47;4989532;28;20125;-85
2021/06/01 04:26:16;;;;;;;5.28;3.17;;;;;;;10.97;74.64;101507.78;4971953;28;20060;-85
2021/06/01 04:28:41;;;;;;;5.45;3.67;;;;;;;11.07;74.14;101503.19;4982939;28;20578;-85
2021/06/01 04:31:07;;;;;;;4.68;3.63;;;;;;;11.14;74.42;101507.97;4979454;28;20145;-84
2021/06/01 04:33:33;;;;;;;6.15;3.90;;;;;;;11.23;73.47;101507.06;4967404;28;20387;-85
2021/06/01 04:35:59;;;;;;;6.90;3.75;;;;;;;11.26;73.27;101509.47;5004100;28;20049;-86
2021/06/01 04:38:25;;;;;;;5.30;3.72;;;;;;;11.36;73.17;101504.84;4963779;28;20125;-86
2021/06/01 04:40:51;;;;;;;6.75;3.95;;;;;;;11.46;73.67;101502.09;4968242;28;20487;-85
2021/06/01 04:43:17;;;;;;;6.82;3.75;;;;;;;11.49;73.33;101502.63;4967460;28;20587;-85
2021/06/01 04:45:42;;;;;;;7.18;3.95;;;;;;;11.56;73.15;101507.41;4989283;28;20053;-86
2021/06/01 04:48:08;;;;;;;7.63;4.00;;;;;;;11.64;73.16;101504.78;4971401;28;20461;-86
2021/06/01 04:50:34;;;;;;;7.40;4.45;;;;;;;11.68;72.94;101511.53;5002526;28;20046;-85
2021/06/01 04:53:00;;;;;;;5.65;3.95;;;;;;;11.77;72.59;101507.06;5013572;28;20046;-85
2021/06/01 04:55:25;;;;;;;6.35;4.00;;;;;;;11.83;73.25;101504.63;4992118;28;20349;-86
2021/06/01 04:57:50;;;;;;;7.05;3.92;;;;;;;11.85;72.75;101510.72;4979024;28;20422;-85
2021/06/01 05:00:17;;;;;;;6.10;4.38;;;;;;;11.90;72.85;101499.50;4994208;28;20187;-85
2021/06/01 05:02:42;;;;;;;7.03;3.85;;;;;;;12.02;73.14;101508.16;5000150;28;20140;-85
2021/06/01 05:05:08;;;;;;;7.15;4.10;;;;;;;12.09;72.94;101498.50;5002043;28;20048;-84
2021/06/01 05:07:33;;;;;;;9.10;4.35;;;;;;;12.23;72.74;101502.44;4971530;28;20278;-86
2021/06/01 05:10:03;;;;;;;9.15;3.95;;;;;;;12.30;72.33;101496.25;4998578;28;20045;-86
2021/06/01 05:12:29;;;;;;;6.45;4.25;;;;;;;12.42;71.82;101499.53;4970228;28;20038;-85
2021/06/01 05:14:55;;;;;;;8.30;4.28;;;;;;;12.46;71.31;101503.63;4987555;28;20526;-85
2021/06/01 05:17:20;;;;;;;8.88;4.05;;;;;;;12.57;71.09;101497.09;4985978;28;20039;-83
2021/06/01 05:19:46;;;;;;;7.93;4.10;;;;;;;12.71;71.01;101499.19;4970063;28;20388;-85
2021/06/01 05:22:12;;;;;;;5.80;4.18;;;;;;;12.77;71.04;101503.06;4985073;28;20088;-85
2021/06/01 05:24:37;;;;;;;7.15;4.28;;;;;;;12.91;71.05;101501.63;4998928;28;20050;-87
2021/06/01 05:27:03;;;;;;;6.97;4.45;;;;;;;12.98;71.22;101495.44;4967517;28;20085;-84
2021/06/01 05:29:29;;;;;;;8.00;4.18;;;;;;;13.12;70.47;101490.41;4991376;28;20073;-85
2021/06/01 05:34:22;;;;;;;7.07;4.35;;;;;;;13.39;69.81;101489.34;4978208;28;20044;-85
2021/06/01 05:36:48;;;;;;;6.95;4.07;;;;;;;13.57;69.71;101484.66;4994115;28;20049;-84
2021/06/01 05:39:14;;;;;;;7.97;4.47;;;;;;;13.67;69.96;101484.50;4982123;28;20050;-84
2021/06/01 05:41:40;;;;;;;8.45;4.18;;;;;;;13.79;69.39;101477.75;5005349;28;20060;-86
2021/06/01 05:44:05;;;;;;;11.10;5.03;;;;;;;13.83;68.46;101480.94;4999503;28;20092;-86
2021/06/01 05:46:31;;;;;;;8.13;4.60;;;;;;;13.93;68.35;101485.16;4988528;28;20050;-84
2021/06/01 05:48:56;;;;;;;7.47;4.78;;;;;;;14.04;68.41;101481.28;4971596;28;20414;-87
2021/06/01 05:51:29;;;;;;;6.45;4.10;;;;;;;14.22;67.63;101483.78;4989297;28;20049;-84
2021/06/01 05:53:55;;;;;;;8.30;4.65;;;;;;;14.35;67.50;101488.66;4990582;28;20064;-83
2021/06/01 05:56:21;;;;;;;7.43;4.65;;;;;;;14.47;66.62;101481.84;5000715;28;20042;-85
2021/06/01 05:58:47;;;;;;;7.00;4.22;;;;;;;14.59;66.24;101475.13;4998189;28;20052;-85
2021/06/01 06:01:12;;;;;;;9.30;3.97;;;;;;;14.71;66.40;101477.44;4985432;28;20050;-86
2021/06/01 06:03:37;;;;;;;8.35;4.35;;;;;;;14.88;66.55;101479.91;4989137;28;20033;-83
2021/06/01 06:06:10;;;;;;;6.28;4.93;;;;;;;14.97;66.19;101474.47;5004171;28;20125;-86
2021/06/01 06:08:36;;;;;;;6.60;4.43;;;;;;;15.10;66.27;101472.88;4998247;28;20053;-84
2021/06/01 06:11:01;;;;;;;9.00;4.32;;;;;;;15.23;65.68;101477.69;4978663;28;20050;-86
2021/06/01 06:13:26;;;;;;;9.20;4.28;;;;;;;15.40;64.86;101477.59;4969276;28;20522;-84
2021/06/01 06:15:52;;;;;;;7.47;4.30;;;;;;;15.50;64.59;101487.13;4984037;28;20054;-84
2021/06/01 06:18:51;;;;;;;6.40;4.10;;;;;;;15.65;63.66;101486.34;4984847;28;20064;-86
2021/06/01 06:21:17;;;;;;;6.18;4.20;;;;;;;15.76;63.37;101483.25;4978127;28;20049;-86
2021/06/01 06:23:42;;;;;;;7.28;4.18;;;;;;;15.91;63.66;101478.75;4997171;28;20045;-87
2021/06/01 06:26:09;;;;;;;6.75;4.65;;;;;;;16.05;62.99;101470.84;4999265;28;20046;-85
2021/06/01 06:28:34;;;;;;;7.47;3.85;;;;;;;16.21;63.12;101473.38;4963151;28;20458;-85
2021/06/01 06:31:00;;;;;;;5.57;3.70;;;;;;;16.36;61.30;101479.66;4981363;28;20046;-85
2021/06/01 06:33:26;;;;;;;7.00;3.65;;;;;;;16.49;59.68;101479.03;4985290;28;20064;-86
2021/06/01 06:35:51;;;;;;;4.60;3.35;;;;;;;16.60;58.63;101474.97;4983699;28;20041;-84
2021/06/01 06:38:18;;;;;;;5.20;3.30;;;;;;;16.64;57.86;101474.44;4971947;28;20232;-85
2021/06/01 06:41:00;;;;;;;9.45;3.38;;;;;;;16.74;58.26;101478.72;4993375;28;20033;-84
2021/06/01 06:43:25;;;;;;;5.13;3.47;;;;;;;16.79;57.96;101470.91;4947659;28;20046;-84
2021/06/01 06:45:51;;;;;;;4.93;3.30;;;;;;;16.91;56.67;101472.94;4970192;28;20046;-84
2021/06/01 06:48:16;;;;;;;5.03;3.15;;;;;;;17.06;58.74;101469.34;4949275;28;20121;-85
2021/06/01 06:50:41;;;;;;;5.68;3.35;;;;;;;17.10;56.75;101470.66;4991470;28;20048;-84
2021/06/01 06:53:07;;;;;;;5.00;3.13;;;;;;;17.17;57.03;101476.16;4966323;28;20057;-86
2021/06/01 06:55:33;;;;;;;5.97;3.47;;;;;;;17.26;56.37;101478.56;4993307;28;20064;-85
2021/06/01 06:58:00;;;;;;;4.57;3.17;;;;;;;17.40;57.41;101478.69;4978177;28;20073;-85
2021/06/01 07:00:26;;;;;;;5.05;3.33;;;;;;;17.52;55.82;101479.88;4983959;28;20321;-84
2021/06/01 07:02:52;;;;;;;6.15;3.20;;;;;;;17.56;55.80;101481.19;4984484;28;20097;-86
2021/06/01 07:05:20;;;;;;;6.15;3.58;;;;;;;17.63;55.47;101475.81;4994246;28;20045;-86
2021/06/01 07:07:53;;;;;;;5.65;3.47;;;;;;;17.70;55.17;101468.59;4967572;28;20282;-84
2021/06/01 07:10:19;;;;;;;5.82;3.92;;;;;;;17.75;55.25;101469.69;5000543;28;20275;-86
2021/06/01 07:12:45;;;;;;;5.78;3.35;;;;;;;17.76;54.62;101476.78;5012461;28;20053;-85
2021/06/01 07:15:30;;;;;;;7.07;3.95;;;;;;;17.86;55.25;101481.91;4988585;28;20046;-86
2021/06/01 07:17:59;;;;;;;4.68;3.38;;;;;;;17.90;54.92;101474.22;4986770;28;20041;-84
2021/06/01 07:20:30;;;;;;;5.72;3.60;;;;;;;17.90;53.78;101480.47;4977788;28;20037;-86
2021/06/01 07:22:56;;;;;;;4.88;3.58;;;;;;;17.98;53.76;101474.06;4972975;28;20050;-85
2021/06/01 07:25:21;;;;;;;5.97;3.65;;;;;;;18.00;54.72;101470.09;4982612;28;20519;-85
2021/06/01 07:27:48;;;;;;;6.25;3.40;;;;;;;18.04;53.30;101468.69;4996877;28;20037;-85
2021/06/01 07:30:14;;;;;;;4.90;3.63;;;;;;;18.09;53.68;101464.53;4982065;28;20424;-87
2021/06/01 07:32:39;;;;;;;5.60;3.35;;;;;;;18.20;52.99;101466.72;4990756;28;20482;-85
2021/06/01 07:35:05;;;;;;;5.38;3.95;;;;;;;18.30;53.23;101466.34;5000664;28;20038;-84
2021/06/01 07:37:30;;;;;;;7.13;3.45;;;;;;;18.41;53.73;101463.06;4990494;28;20038;-85
2021/06/01 07:39:57;;;;;;;6.25;3.08;;;;;;;18.54;53.72;101467.75;4951236;28;20335;-85
2021/06/01 07:42:23;;;;;;;5.55;3.17;;;;;;;18.66;52.65;101466.16;4986653;28;20826;-84
2021/06/01 07:44:48;;;;;;;5.93;3.65;;;;;;;18.65;53.46;101459.03;5003944;28;20046;-84
2021/06/01 07:47:13;;;;;;;5.10;3.30;;;;;;;18.73;52.65;101461.59;4978153;28;20056;-85
2021/06/01 07:49:39;;;;;;;5.18;3.40;;;;;;;18.78;51.86;101459.13;4988709;28;20056;-86
2021/06/01 07:52:05;;;;;;;5.88;3.42;;;;;;;18.89;53.42;101460.44;4980985;28;20571;-87
2021/06/01 07:54:32;;;;;;;5.88;3.45;;;;;;;18.93;51.10;101459.84;4985212;28;20487;-86
2021/06/01 07:56:58;;;;;;;4.68;3.20;;;;;;;18.89;53.50;101460.44;4968095;28;20479;-83
2021/06/01 07:59:24;;;;;;;3.88;3.17;;;;;;;18.94;53.52;101456.06;4992823;28;20045;-85
2021/06/01 08:01:51;;;;;;;5.88;3.85;;;;;;;19.06;52.55;101455.47;4989086;28;20049;-84
2021/06/01 08:04:16;;;;;;;6.40;3.55;;;;;;;19.09;52.56;101444.19;4964202;28;20050;-85
2021/06/01 08:06:41;;;;;;;6.47;3.53;;;;;;;19.36;53.94;101455.97;4993275;28;20252;-84
2021/06/01 08:09:08;;;;;;;6.28;3.50;;;;;;;19.50;52.34;101454.94;4973631;28;20197;-84
2021/06/01 08:11:36;;;;;;;4.55;2.97;;;;;;;19.58;53.94;101456.63;5004545;28;20050;-84
2021/06/01 08:14:02;;;;;;;7.03;3.10;;;;;;;19.78;51.65;101453.97;4983216;28;20049;-87
2021/06/01 08:16:31;;;;;;;5.57;3.13;;;;;;;19.75;51.16;101447.03;4970283;28;20296;-86
2021/06/01 08:24:25;;;;;;;4.70;2.80;;;;;;;20.10;51.51;101444.09;5007477;28;20064;-85
2021/06/01 08:26:51;;;;;;;4.85;2.97;;;;;;;20.17;50.90;101436.75;4985961;28;20038;-85
2021/06/01 08:29:17;;;;;;;4.28;2.97;;;;;;;20.24;50.84;101440.31;4984857;28;20046;-85
2021/06/01 08:31:43;;;;;;;4.78;3.20;;;;;;;20.29;50.05;101442.41;4964589;28;20050;-85
2021/06/01 08:34:09;;;;;;;4.30;2.72;;;;;;;20.33;50.36;101440.06;4998916;28;20037;-85
2021/06/01 08:36:35;;;;;;;5.63;3.08;;;;;;;20.47;50.23;101434.38;4958591;28;20076;-85
2021/06/01 08:39:02;;;;;;;4.32;2.75;;;;;;;20.59;49.57;101444.66;4999017;28;20054;-85
2021/06/01 08:41:27;;;;;;;4.60;3.15;;;;;;;20.61;49.40;101439.81;4987631;28;20107;-86
2021/06/01 08:43:54;;;;;;;6.25;3.00;;;;;;;20.66;48.31;101432.69;4972342;28;20042;-84
2021/06/01 08:46:24;;;;;;;5.15;2.65;;;;;;;20.71;49.26;101432.00;4992360;28;20043;-85
2021/06/01 08:48:50;;;;;;;3.65;2.78;;;;;;;20.79;49.26;101429.03;5011065;28;20041;-85
2021/06/01 08:51:20;;;;;;;5.80;2.80;;;;;;;20.92;49.12;101429.00;5023352;28;20115;-85
2021/06/01 08:53:46;;;;;;;5.00;2.92;;;;;;;21.11;49.56;101424.47;4963879;28;20073;-85
2021/06/01 08:56:11;;;;;;;4.32;2.83;;;;;;;21.19;49.03;101413.31;5001149;28;20065;-85
2021/06/01 08:58:37;;;;;;;5.32;3.30;;;;;;;21.19;47.67;101420.66;4970569;28;20493;-85
2021/06/01 09:01:03;;;;;;;4.53;2.85;;;;;;;21.35;47.67;101417.41;4974814;28;20052;-84
2021/06/01 09:03:28;;;;;;;4.55;2.58;;;;;;;21.32;47.55;101414.25;4998566;28;20029;-86
2021/06/01 09:06:14;;;;;;;5.28;3.10;;;;;;;21.32;45.38;101412.41;4989046;28;20406;-86
2021/06/01 09:11:53;;;;;;;9.25;3.22;;;;;;;21.46;44.63;101421.34;4980418;28;20046;-87
2021/06/01 09:22:44;;;;;;;5.47;3.05;;;;;;;21.51;45.35;101415.22;4983066;28;20065;-84
2021/06/01 09:26:02;;;;;;;5.93;2.72;;;;;;;21.65;46.34;101415.97;4969293;28;20107;-87
2021/06/01 09:28:10;;;;;;;;;;;;;;;21.81;45.00;101424.44;4990595;28;20120;-87
2021/06/01 09:30:37;;;;;;;6.35;2.17;;;;;;;;;;4987356;28;19930;-86
2021/06/01 09:33:17;;;;;;;5.10;2.95;;;;;;;21.80;45.00;101414.56;4973181;28;20412;-85
2021/06/01 09:35:59;;;;;;;4.63;2.80;;;;;;;21.84;44.95;101414.97;5006995;28;20564;-85
2021/06/01 09:38:43;;;;;;;3.80;2.28;;;;;;;21.86;44.11;101408.19;4954828;28;20264;-86
2021/06/01 09:41:24;;;;;;;3.95;2.50;;;;;;;21.99;43.68;101401.78;4983818;28;20053;-85
2021/06/01 09:44:00;;;;;;;5.35;2.67;;;;;;;22.19;44.01;101401.59;4998517;28;20223;-86
2021/06/01 09:46:26;;;;;;;4.68;2.40;;;;;;;22.14;45.55;101401.41;4987661;28;20427;-86
2021/06/01 09:48:54;;;;;;;3.78;2.65;;;;;;;22.20;44.39;101396.97;4987677;28;20076;-86
2021/06/01 09:51:42;;;;;;;6.25;2.60;;;;;;;22.50;46.40;101397.06;4982486;28;20056;-85
2021/06/01 09:54:28;;;;;;;;;;;;;;;22.58;44.04;101391.25;5000071;28;20049;-86
2021/06/01 09:56:54;;;;;;;5.10;2.22;;;;;;;22.61;44.22;101388.06;5001621;28;19957;-86
2021/06/01 09:59:19;;;;;;;5.07;2.75;;;;;;;22.71;44.11;101387.53;5005488;28;20088;-85
2021/06/01 10:01:45;;;;;;;4.55;2.58;;;;;;;22.73;44.18;101383.50;5006509;28;20046;-87
2021/06/01 10:04:29;;;;;;;4.35;2.60;;;;;;;22.82;43.06;101380.47;4988753;28;20035;-85
2021/06/01 10:06:56;;;;;;;3.03;2.30;;;;;;;22.86;43.13;101367.97;4981881;28;20061;-85
2021/06/01 10:09:21;;;;;;;4.82;2.20;;;;;;;22.86;42.82;101373.44;4984977;28;20955;-86
2021/06/01 10:11:55;;;;;;;4.00;2.53;;;;;;;22.71;41.38;101374.69;4999153;28;20104;-87
2021/06/01 10:14:23;;;;;;;4.18;2.33;;;;;;;22.84;41.21;101370.09;4984130;28;20048;-85
2021/06/01 10:16:48;;;;;;;4.72;2.17;;;;;;;22.94;40.03;101370.38;4992751;28;20042;-85
2021/06/01 10:19:15;;;;;;;3.83;2.33;;;;;;;23.05;42.84;101372.34;4965571;28;20053;-86
2021/06/01 10:21:43;;;;;;;3.03;2.00;;;;;;;23.01;40.53;101371.13;4984378;28;20228;-86
2021/06/01 10:24:11;;;;;;;3.50;1.88;;;;;;;22.85;39.30;101360.84;5002312;28;20497;-86
2021/06/01 10:26:37;;;;;;;4.47;1.88;;;;;;;22.94;41.04;101359.44;4986914;28;20526;-85
2021/06/01 10:29:06;;;;;;;4.18;2.00;;;;;;;23.09;38.78;101357.13;4984139;28;20070;-85
2021/06/01 10:31:31;;;;;;;;;;;;;;;23.18;40.00;101360.38;4986008;28;20154;-85
2021/06/01 10:33:59;;;;;;;4.50;2.07;;;;;;;23.13;39.00;101349.28;4985824;28;19914;-86
2021/06/01 10:53:11;;;;;;;3.65;2.25;;;;;;;23.51;40.70;101334.38;5005098;28;20084;-87
2021/06/01 10:55:49;;;;;;;4.78;2.58;;;;;;;23.60;41.63;101333.75;5002545;28;20125;-85
2021/06/01 10:58:15;;;;;;;3.40;2.05;;;;;;;23.65;40.99;101333.06;5007867;28;20508;-87
2021/06/01 11:03:14;;;;;;;2.58;1.70;;;;;;;23.87;39.45;101327.81;5001660;28;20046;-86
2021/06/01 11:05:59;;;;;;;5.75;2.33;;;;;;;23.78;40.05;101337.47;4985267;28;20045;-84
2021/06/01 11:08:45;;;;;;;4.38;2.50;;;;;;;23.73;39.30;101334.63;4999948;28;20054;-86
2021/06/01 11:11:22;;;;;;;5.10;2.65;;;;;;;23.67;39.97;101327.31;4975151;28;20443;-85
2021/06/01 11:13:48;;;;;;;6.03;2.97;;;;;;;23.86;41.06;101328.91;5009559;28;20048;-85
2021/06/01 11:16:13;;;;;;;4.95;2.30;;;;;;;23.91;39.22;101333.66;5000994;28;20034;-87
2021/06/01 11:18:45;;;;;;;6.05;2.40;;;;;;;23.73;38.75;101321.75;4987419;28;20121;-87
2021/06/01 11:35:31;;;;;;;4.15;1.77;;;;;;;24.45;39.18;101313.16;5005681;28;20033;-84
2021/06/01 11:38:08;;;;;;;2.90;2.00;;;;;;;24.50;36.15;101304.22;5005867;28;20434;-86
2021/06/01 11:40:54;;;;;;;4.20;2.00;;;;;;;24.46;37.58;101306.63;4959153;28;20120;-86
2021/06/01 11:43:20;;;;;;;2.85;2.03;;;;;;;24.27;33.55;101286.72;4966471;28;20045;-86
2021/06/01 11:46:07;;;;;;;4.05;2.05;;;;;;;24.32;38.23;101294.25;4986906;28;20034;-87
2021/06/01 11:51:28;;;;;;;4.75;1.95;;;;;;;24.48;35.41;101298.97;5012792;28;20037;-89
2021/06/01 11:53:58;;;;;;;4.00;1.83;;;;;;;24.55;36.69;101304.31;5005186;28;20128;-85
2021/06/01 12:02:01;;;;;;;3.40;2.03;;;;;;;24.52;34.24;101297.41;5004895;28;20076;-87
2021/06/01 12:18:47;;;;;;;4.00;1.98;;;;;;;25.37;37.42;101273.63;4982754;28;20173;-87
2021/06/01 12:21:19;;;;;;;3.28;2.13;;;;;;;25.37;34.16;101272.81;5005062;28;20140;-84
2021/06/01 12:23:56;;;;;;;3.67;1.85;;;;;;;25.35;33.76;101275.81;4989904;28;20067;-87
2021/06/01 12:26:25;;;;;;;3.25;1.90;;;;;;;25.35;35.83;101275.00;4989270;28;20053;-86
2021/06/01 12:31:49;;;;;;;3.60;2.22;;;;;;;25.54;36.78;101259.06;5026521;28;20558;-88
2021/06/01 12:34:24;;;;;;;3.55;1.80;;;;;;;25.61;36.93;101262.47;5009864;28;20060;-85
2021/06/01 13:21:36;;;;;;;3.85;1.60;;;;;;;27.00;36.82;101216.16;5004372;28;20068;-84
2021/06/01 13:24:32;;;;;;;2.40;1.80;;;;;;;27.06;33.21;101217.03;4988071;28;20399;-86
2021/06/01 13:37:58;;;;;;;3.28;1.50;;;;;;;27.09;31.80;101195.28;5001994;28;20404;-85
2021/06/01 13:46:11;;;;;;;2.38;1.75;;;;;;;27.32;33.40;101187.75;4987571;28;20060;-86
2021/06/01 13:56:34;;;;;;;;;;;;;;;27.55;28.56;101181.81;4988171;28;20568;-85
2021/06/01 13:59:15;;;;;;;4.93;1.90;;;;;;;27.35;31.57;101187.22;5007211;28;19953;-85
2021/06/01 14:10:12;;;;;;;2.45;1.48;;;;;;;27.88;30.21;101171.53;5004960;28;20048;-84
2021/06/01 14:29:42;;;;;;;3.17;1.60;;;;;;;28.02;27.73;101163.53;5006288;28;20045;-86
2021/06/01 14:54:54;;;;;;;4.15;1.63;;;;;;;28.25;31.03;101156.69;5003124;28;20049;-85
2021/06/01 15:31:33;;;;;;;3.60;1.67;;;;;;;28.91;33.69;101108.94;4988857;28;20054;-85